sensor_id;sensor_type;location;lat;lon;timestamp;P1;durP1;ratioP1;P2;durP2;ratioP2
3095;SDS011;1558;42.700;23.360;2024-03-07T00:01:53;4.50;;;2.07;;
3095;SDS011;1558;42.700;23.360;2024-03-07T00:04:23;6.07;;;2.80;;
3095;SDS011;1558;42.700;23.360;2024-03-07T00:06:56;3.53;;;2.37;;
3095;SDS011;1558;42.700;23.360;2024-03-07T00:09:25;3.50;;;2.57;;
3095;SDS011;1558;42.700;23.360;2024-03-07T00:11:54;4.83;;;2.77;;
3095;SDS011;1558;42.700;23.360;2024-03-07T00:14:23;3.77;;;2.73;;
3095;SDS011;1558;42.700;23.360;2024-03-07T00:16:57;3.10;;;2.33;;
3095;SDS011;1558;42.700;23.360;2024-03-07T00:19:26;3.90;;;2.63;;
3095;SDS011;1558;42.700;23.360;2024-03-07T00:21:54;2.23;;;2.10;;
3095;SDS011;1558;42.700;23.360;2024-03-07T00:24:24;2.40;;;1.87;;
3095;SDS011;1558;42.700;23.360;2024-03-07T00:26:53;5.13;;;2.40;;
3095;SDS011;1558;42.700;23.360;2024-03-07T00:29:23;3.17;;;2.97;;
3095;SDS011;1558;42.700;23.360;2024-03-07T00:31:52;3.30;;;2.63;;
3095;SDS011;1558;42.700;23.360;2024-03-07T00:34:26;4.23;;;3.73;;
3095;SDS011;1558;42.700;23.360;2024-03-07T00:36:55;3.67;;;3.37;;
3095;SDS011;1558;42.700;23.360;2024-03-07T00:39:24;3.90;;;3.50;;
3095;SDS011;1558;42.700;23.360;2024-03-07T00:41:54;3.63;;;3.33;;
3095;SDS011;1558;42.700;23.360;2024-03-07T00:44:23;4.57;;;2.70;;
3095;SDS011;1558;42.700;23.360;2024-03-07T00:46:55;4.47;;;3.07;;
3095;SDS011;1558;42.700;23.360;2024-03-07T00:49:24;4.73;;;4.33;;
3095;SDS011;1558;42.700;23.360;2024-03-07T00:51:54;3.57;;;3.30;;
3095;SDS011;1558;42.700;23.360;2024-03-07T00:54:23;3.03;;;2.73;;
3095;SDS011;1558;42.700;23.360;2024-03-07T00:56:59;4.40;;;3.53;;
3095;SDS011;1558;42.700;23.360;2024-03-07T00:59:34;3.10;;;2.90;;
3095;SDS011;1558;42.700;23.360;2024-03-07T01:02:11;4.60;;;4.30;;
3095;SDS011;1558;42.700;23.360;2024-03-07T01:04:42;4.10;;;3.77;;
3095;SDS011;1558;42.700;23.360;2024-03-07T01:07:12;4.43;;;3.83;;
3095;SDS011;1558;42.700;23.360;2024-03-07T01:09:40;3.93;;;3.60;;
3095;SDS011;1558;42.700;23.360;2024-03-07T01:12:11;5.43;;;4.00;;
3095;SDS011;1558;42.700;23.360;2024-03-07T01:14:39;3.83;;;3.50;;
3095;SDS011;1558;42.700;23.360;2024-03-07T01:17:09;3.97;;;3.73;;
3095;SDS011;1558;42.700;23.360;2024-03-07T01:19:38;3.17;;;2.97;;
3095;SDS011;1558;42.700;23.360;2024-03-07T01:22:10;3.47;;;2.93;;
3095;SDS011;1558;42.700;23.360;2024-03-07T01:24:42;3.30;;;2.83;;
3095;SDS011;1558;42.700;23.360;2024-03-07T01:27:27;3.57;;;3.30;;
3095;SDS011;1558;42.700;23.360;2024-03-07T01:30:02;3.77;;;3.43;;
3095;SDS011;1558;42.700;23.360;2024-03-07T01:32:38;4.43;;;4.07;;
3095;SDS011;1558;42.700;23.360;2024-03-07T01:35:07;3.80;;;3.53;;
3095;SDS011;1558;42.700;23.360;2024-03-07T01:37:39;3.23;;;2.90;;
3095;SDS011;1558;42.700;23.360;2024-03-07T01:40:11;3.73;;;3.43;;
3095;SDS011;1558;42.700;23.360;2024-03-07T01:42:42;3.30;;;2.97;;
3095;SDS011;1558;42.700;23.360;2024-03-07T01:45:18;3.20;;;3.00;;
3095;SDS011;1558;42.700;23.360;2024-03-07T01:47:51;4.80;;;3.70;;
3095;SDS011;1558;42.700;23.360;2024-03-07T01:50:26;2.83;;;2.63;;
3095;SDS011;1558;42.700;23.360;2024-03-07T01:53:00;5.00;;;3.80;;
3095;SDS011;1558;42.700;23.360;2024-03-07T01:55:33;4.47;;;3.40;;
3095;SDS011;1558;42.700;23.360;2024-03-07T01:58:02;4.13;;;3.27;;
3095;SDS011;1558;42.700;23.360;2024-03-07T02:00:42;2.70;;;2.50;;
3095;SDS011;1558;42.700;23.360;2024-03-07T02:03:18;2.50;;;2.30;;
3095;SDS011;1558;42.700;23.360;2024-03-07T02:06:09;4.33;;;3.17;;
3095;SDS011;1558;42.700;23.360;2024-03-07T02:08:45;4.13;;;2.70;;
3095;SDS011;1558;42.700;23.360;2024-03-07T02:11:14;4.50;;;3.07;;
3095;SDS011;1558;42.700;23.360;2024-03-07T02:13:43;4.47;;;3.77;;
3095;SDS011;1558;42.700;23.360;2024-03-07T02:16:11;5.47;;;2.90;;
3095;SDS011;1558;42.700;23.360;2024-03-07T02:18:39;4.10;;;2.80;;
3095;SDS011;1558;42.700;23.360;2024-03-07T02:21:11;3.90;;;3.10;;
3095;SDS011;1558;42.700;23.360;2024-03-07T02:23:40;3.97;;;3.30;;
3095;SDS011;1558;42.700;23.360;2024-03-07T02:26:08;4.10;;;2.67;;
3095;SDS011;1558;42.700;23.360;2024-03-07T02:28:37;3.20;;;2.90;;
3095;SDS011;1558;42.700;23.360;2024-03-07T02:31:05;3.00;;;2.67;;
3095;SDS011;1558;42.700;23.360;2024-03-07T02:33:34;3.30;;;2.70;;
3095;SDS011;1558;42.700;23.360;2024-03-07T02:36:02;4.47;;;2.60;;
3095;SDS011;1558;42.700;23.360;2024-03-07T02:38:32;5.40;;;4.07;;
3095;SDS011;1558;42.700;23.360;2024-03-07T02:41:01;3.20;;;2.57;;
3095;SDS011;1558;42.700;23.360;2024-03-07T02:43:29;2.97;;;2.73;;
3095;SDS011;1558;42.700;23.360;2024-03-07T02:45:57;3.00;;;2.80;;
3095;SDS011;1558;42.700;23.360;2024-03-07T02:48:25;2.80;;;2.43;;
3095;SDS011;1558;42.700;23.360;2024-03-07T02:50:53;3.67;;;2.53;;
3095;SDS011;1558;42.700;23.360;2024-03-07T02:53:22;4.37;;;3.73;;
3095;SDS011;1558;42.700;23.360;2024-03-07T02:55:51;2.80;;;2.60;;
3095;SDS011;1558;42.700;23.360;2024-03-07T02:58:20;3.10;;;2.80;;
3095;SDS011;1558;42.700;23.360;2024-03-07T03:00:48;4.37;;;2.53;;
3095;SDS011;1558;42.700;23.360;2024-03-07T03:03:16;2.13;;;2.03;;
3095;SDS011;1558;42.700;23.360;2024-03-07T03:05:45;2.30;;;2.20;;
3095;SDS011;1558;42.700;23.360;2024-03-07T03:08:16;1.97;;;1.87;;
3095;SDS011;1558;42.700;23.360;2024-03-07T03:10:45;1.87;;;1.77;;
3095;SDS011;1558;42.700;23.360;2024-03-07T03:13:14;2.07;;;1.97;;
3095;SDS011;1558;42.700;23.360;2024-03-07T03:15:43;2.60;;;2.50;;
3095;SDS011;1558;42.700;23.360;2024-03-07T03:18:11;2.17;;;1.97;;
3095;SDS011;1558;42.700;23.360;2024-03-07T03:20:40;1.40;;;1.40;;
3095;SDS011;1558;42.700;23.360;2024-03-07T03:23:10;1.43;;;1.43;;
3095;SDS011;1558;42.700;23.360;2024-03-07T03:26:06;2.43;;;1.90;;
3095;SDS011;1558;42.700;23.360;2024-03-07T03:28:46;1.77;;;1.67;;
3095;SDS011;1558;42.700;23.360;2024-03-07T03:31:17;1.93;;;1.83;;
3095;SDS011;1558;42.700;23.360;2024-03-07T03:33:51;1.30;;;1.30;;
3095;SDS011;1558;42.700;23.360;2024-03-07T03:36:21;1.40;;;1.40;;
3095;SDS011;1558;42.700;23.360;2024-03-07T03:38:52;1.07;;;1.07;;
3095;SDS011;1558;42.700;23.360;2024-03-07T03:41:20;1.50;;;1.50;;
3095;SDS011;1558;42.700;23.360;2024-03-07T03:43:51;1.20;;;1.20;;
3095;SDS011;1558;42.700;23.360;2024-03-07T03:46:22;1.03;;;1.03;;
3095;SDS011;1558;42.700;23.360;2024-03-07T03:49:10;1.57;;;1.40;;
3095;SDS011;1558;42.700;23.360;2024-03-07T03:52:12;1.60;;;1.53;;
3095;SDS011;1558;42.700;23.360;2024-03-07T03:54:47;1.30;;;1.30;;
3095;SDS011;1558;42.700;23.360;2024-03-07T03:57:20;1.20;;;1.20;;
3095;SDS011;1558;42.700;23.360;2024-03-07T03:59:53;1.00;;;1.00;;
3095;SDS011;1558;42.700;23.360;2024-03-07T04:02:22;1.00;;;1.00;;
3095;SDS011;1558;42.700;23.360;2024-03-07T04:04:51;1.03;;;1.03;;
3095;SDS011;1558;42.700;23.360;2024-03-07T04:07:20;1.20;;;1.20;;
3095;SDS011;1558;42.700;23.360;2024-03-07T04:09:48;0.90;;;0.90;;
3095;SDS011;1558;42.700;23.360;2024-03-07T04:12:16;1.30;;;1.30;;
3095;SDS011;1558;42.700;23.360;2024-03-07T04:14:48;1.40;;;1.40;;
3095;SDS011;1558;42.700;23.360;2024-03-07T04:17:18;2.50;;;1.27;;
3095;SDS011;1558;42.700;23.360;2024-03-07T04:19:47;0.80;;;0.80;;
3095;SDS011;1558;42.700;23.360;2024-03-07T04:22:17;1.53;;;1.43;;
3095;SDS011;1558;42.700;23.360;2024-03-07T04:24:52;1.27;;;1.27;;
3095;SDS011;1558;42.700;23.360;2024-03-07T04:27:22;1.10;;;1.10;;
3095;SDS011;1558;42.700;23.360;2024-03-07T04:30:01;1.20;;;1.10;;
3095;SDS011;1558;42.700;23.360;2024-03-07T04:35:33;0.90;;;0.90;;
3095;SDS011;1558;42.700;23.360;2024-03-07T04:38:17;1.03;;;1.03;;
3095;SDS011;1558;42.700;23.360;2024-03-07T04:41:04;1.40;;;1.30;;
3095;SDS011;1558;42.700;23.360;2024-03-07T04:44:04;1.30;;;1.20;;
3095;SDS011;1558;42.700;23.360;2024-03-07T04:47:12;1.07;;;1.07;;
3095;SDS011;1558;42.700;23.360;2024-03-07T04:50:24;1.50;;;1.40;;
3095;SDS011;1558;42.700;23.360;2024-03-07T04:52:55;1.77;;;1.63;;
3095;SDS011;1558;42.700;23.360;2024-03-07T04:55:24;1.30;;;1.20;;
3095;SDS011;1558;42.700;23.360;2024-03-07T04:57:56;1.33;;;1.23;;
3095;SDS011;1558;42.700;23.360;2024-03-07T05:00:26;2.03;;;1.53;;
3095;SDS011;1558;42.700;23.360;2024-03-07T05:02:57;1.60;;;1.50;;
3095;SDS011;1558;42.700;23.360;2024-03-07T05:05:26;1.30;;;1.30;;
3095;SDS011;1558;42.700;23.360;2024-03-07T05:07:56;1.73;;;1.63;;
3095;SDS011;1558;42.700;23.360;2024-03-07T05:10:24;1.47;;;1.37;;
3095;SDS011;1558;42.700;23.360;2024-03-07T05:12:58;1.10;;;1.10;;
3095;SDS011;1558;42.700;23.360;2024-03-07T05:15:27;1.50;;;1.40;;
3095;SDS011;1558;42.700;23.360;2024-03-07T05:17:57;1.60;;;1.50;;
3095;SDS011;1558;42.700;23.360;2024-03-07T05:20:28;1.47;;;1.40;;
3095;SDS011;1558;42.700;23.360;2024-03-07T05:23:08;1.90;;;1.77;;
3095;SDS011;1558;42.700;23.360;2024-03-07T05:25:40;1.30;;;1.20;;
3095;SDS011;1558;42.700;23.360;2024-03-07T05:28:12;1.60;;;1.50;;
3095;SDS011;1558;42.700;23.360;2024-03-07T05:30:48;1.10;;;1.10;;
3095;SDS011;1558;42.700;23.360;2024-03-07T05:33:17;1.70;;;1.60;;
3095;SDS011;1558;42.700;23.360;2024-03-07T05:35:49;1.63;;;1.53;;
3095;SDS011;1558;42.700;23.360;2024-03-07T05:38:30;2.27;;;1.60;;
3095;SDS011;1558;42.700;23.360;2024-03-07T05:40:59;1.93;;;1.83;;
3095;SDS011;1558;42.700;23.360;2024-03-07T05:43:30;1.50;;;1.50;;
3095;SDS011;1558;42.700;23.360;2024-03-07T05:46:18;2.00;;;1.90;;
3095;SDS011;1558;42.700;23.360;2024-03-07T05:48:46;2.47;;;1.73;;
3095;SDS011;1558;42.700;23.360;2024-03-07T05:51:18;1.67;;;1.57;;
3095;SDS011;1558;42.700;23.360;2024-03-07T05:53:48;1.43;;;1.33;;
3095;SDS011;1558;42.700;23.360;2024-03-07T05:56:16;2.30;;;1.67;;
3095;SDS011;1558;42.700;23.360;2024-03-07T05:58:44;1.90;;;1.80;;
3095;SDS011;1558;42.700;23.360;2024-03-07T06:01:12;1.70;;;1.60;;
3095;SDS011;1558;42.700;23.360;2024-03-07T06:03:42;2.53;;;2.23;;
3095;SDS011;1558;42.700;23.360;2024-03-07T06:06:10;1.87;;;1.77;;
3095;SDS011;1558;42.700;23.360;2024-03-07T06:08:39;2.33;;;2.23;;
3095;SDS011;1558;42.700;23.360;2024-03-07T06:11:11;1.67;;;1.57;;
3095;SDS011;1558;42.700;23.360;2024-03-07T06:13:39;1.93;;;1.83;;
3095;SDS011;1558;42.700;23.360;2024-03-07T06:16:07;1.83;;;1.73;;
3095;SDS011;1558;42.700;23.360;2024-03-07T06:18:36;2.00;;;1.90;;
3095;SDS011;1558;42.700;23.360;2024-03-07T06:21:05;2.63;;;2.43;;
3095;SDS011;1558;42.700;23.360;2024-03-07T06:23:33;2.47;;;1.50;;
3095;SDS011;1558;42.700;23.360;2024-03-07T06:26:01;1.90;;;1.80;;
3095;SDS011;1558;42.700;23.360;2024-03-07T06:28:40;1.87;;;1.77;;
3095;SDS011;1558;42.700;23.360;2024-03-07T06:31:09;2.27;;;2.07;;
3095;SDS011;1558;42.700;23.360;2024-03-07T06:33:37;2.03;;;1.93;;
3095;SDS011;1558;42.700;23.360;2024-03-07T06:36:05;1.40;;;1.40;;
3095;SDS011;1558;42.700;23.360;2024-03-07T06:38:37;1.57;;;1.57;;
3095;SDS011;1558;42.700;23.360;2024-03-07T06:41:09;2.20;;;2.10;;
3095;SDS011;1558;42.700;23.360;2024-03-07T06:43:49;1.93;;;1.83;;
3095;SDS011;1558;42.700;23.360;2024-03-07T06:46:17;1.97;;;1.87;;
3095;SDS011;1558;42.700;23.360;2024-03-07T06:48:46;2.07;;;1.97;;
3095;SDS011;1558;42.700;23.360;2024-03-07T06:51:14;2.03;;;1.93;;
3095;SDS011;1558;42.700;23.360;2024-03-07T06:53:44;2.80;;;2.60;;
3095;SDS011;1558;42.700;23.360;2024-03-07T06:56:14;2.10;;;2.00;;
3095;SDS011;1558;42.700;23.360;2024-03-07T06:58:43;2.10;;;2.00;;
3095;SDS011;1558;42.700;23.360;2024-03-07T07:01:14;1.87;;;1.60;;
3095;SDS011;1558;42.700;23.360;2024-03-07T07:03:43;2.00;;;1.90;;
3095;SDS011;1558;42.700;23.360;2024-03-07T07:06:15;1.73;;;1.63;;
3095;SDS011;1558;42.700;23.360;2024-03-07T07:08:43;1.70;;;1.60;;
3095;SDS011;1558;42.700;23.360;2024-03-07T07:11:12;2.27;;;2.17;;
3095;SDS011;1558;42.700;23.360;2024-03-07T07:13:40;2.07;;;1.93;;
3095;SDS011;1558;42.700;23.360;2024-03-07T07:16:09;2.57;;;2.20;;
3095;SDS011;1558;42.700;23.360;2024-03-07T07:18:39;2.73;;;2.53;;
3095;SDS011;1558;42.700;23.360;2024-03-07T07:21:07;2.30;;;2.20;;
3095;SDS011;1558;42.700;23.360;2024-03-07T07:23:37;2.63;;;2.53;;
3095;SDS011;1558;42.700;23.360;2024-03-07T07:26:06;2.20;;;2.10;;
3095;SDS011;1558;42.700;23.360;2024-03-07T07:28:34;3.43;;;3.23;;
3095;SDS011;1558;42.700;23.360;2024-03-07T07:31:03;2.97;;;2.77;;
3095;SDS011;1558;42.700;23.360;2024-03-07T07:33:32;2.73;;;2.63;;
3095;SDS011;1558;42.700;23.360;2024-03-07T07:36:02;2.43;;;2.33;;
3095;SDS011;1558;42.700;23.360;2024-03-07T07:38:31;2.50;;;2.40;;
3095;SDS011;1558;42.700;23.360;2024-03-07T07:40:59;2.37;;;2.27;;
3095;SDS011;1558;42.700;23.360;2024-03-07T07:43:27;2.80;;;2.70;;
3095;SDS011;1558;42.700;23.360;2024-03-07T07:46:08;3.13;;;2.93;;
3095;SDS011;1558;42.700;23.360;2024-03-07T07:48:36;2.60;;;2.50;;
3095;SDS011;1558;42.700;23.360;2024-03-07T07:51:07;3.20;;;3.10;;
3095;SDS011;1558;42.700;23.360;2024-03-07T07:53:35;7.20;;;3.07;;
3095;SDS011;1558;42.700;23.360;2024-03-07T07:56:03;2.30;;;2.20;;
3095;SDS011;1558;42.700;23.360;2024-03-07T07:58:32;2.50;;;2.40;;
3095;SDS011;1558;42.700;23.360;2024-03-07T08:01:00;2.60;;;2.50;;
3095;SDS011;1558;42.700;23.360;2024-03-07T08:03:29;1.93;;;1.83;;
3095;SDS011;1558;42.700;23.360;2024-03-07T08:05:59;1.80;;;1.70;;
3095;SDS011;1558;42.700;23.360;2024-03-07T08:08:29;1.50;;;1.40;;
3095;SDS011;1558;42.700;23.360;2024-03-07T08:10:57;1.50;;;1.50;;
3095;SDS011;1558;42.700;23.360;2024-03-07T08:13:26;1.43;;;1.43;;
3095;SDS011;1558;42.700;23.360;2024-03-07T08:15:54;1.40;;;1.40;;
3095;SDS011;1558;42.700;23.360;2024-03-07T08:18:22;1.50;;;1.40;;
3095;SDS011;1558;42.700;23.360;2024-03-07T08:20:50;1.33;;;1.30;;
3095;SDS011;1558;42.700;23.360;2024-03-07T08:23:22;1.80;;;1.70;;
3095;SDS011;1558;42.700;23.360;2024-03-07T08:25:53;1.60;;;1.50;;
3095;SDS011;1558;42.700;23.360;2024-03-07T08:28:21;1.37;;;1.30;;
3095;SDS011;1558;42.700;23.360;2024-03-07T08:30:49;1.60;;;1.50;;
3095;SDS011;1558;42.700;23.360;2024-03-07T08:33:17;1.10;;;1.10;;
3095;SDS011;1558;42.700;23.360;2024-03-07T08:35:49;1.37;;;1.37;;
3095;SDS011;1558;42.700;23.360;2024-03-07T08:38:19;1.57;;;1.40;;
3095;SDS011;1558;42.700;23.360;2024-03-07T08:40:48;1.20;;;1.20;;
3095;SDS011;1558;42.700;23.360;2024-03-07T08:43:17;1.57;;;1.47;;
3095;SDS011;1558;42.700;23.360;2024-03-07T08:45:45;1.30;;;1.30;;
3095;SDS011;1558;42.700;23.360;2024-03-07T08:48:13;1.30;;;1.20;;
3095;SDS011;1558;42.700;23.360;2024-03-07T08:50:46;1.57;;;1.47;;
3095;SDS011;1558;42.700;23.360;2024-03-07T08:53:14;1.30;;;1.30;;
3095;SDS011;1558;42.700;23.360;2024-03-07T08:55:42;1.43;;;1.43;;
3095;SDS011;1558;42.700;23.360;2024-03-07T08:58:11;1.17;;;1.17;;
3095;SDS011;1558;42.700;23.360;2024-03-07T09:00:40;1.50;;;1.40;;
3095;SDS011;1558;42.700;23.360;2024-03-07T09:03:08;1.00;;;1.00;;
3095;SDS011;1558;42.700;23.360;2024-03-07T09:05:39;1.40;;;1.40;;
3095;SDS011;1558;42.700;23.360;2024-03-07T09:08:08;1.57;;;1.47;;
3095;SDS011;1558;42.700;23.360;2024-03-07T09:10:36;1.00;;;1.00;;
3095;SDS011;1558;42.700;23.360;2024-03-07T09:13:08;1.33;;;1.23;;
3095;SDS011;1558;42.700;23.360;2024-03-07T09:15:36;1.37;;;1.27;;
3095;SDS011;1558;42.700;23.360;2024-03-07T09:18:05;1.40;;;1.40;;
3095;SDS011;1558;42.700;23.360;2024-03-07T09:20:35;1.13;;;1.13;;
3095;SDS011;1558;42.700;23.360;2024-03-07T09:23:05;1.13;;;1.03;;
3095;SDS011;1558;42.700;23.360;2024-03-07T09:25:33;1.90;;;1.80;;
3095;SDS011;1558;42.700;23.360;2024-03-07T09:28:02;3.73;;;3.43;;
3095;SDS011;1558;42.700;23.360;2024-03-07T09:30:33;3.87;;;3.53;;
3095;SDS011;1558;42.700;23.360;2024-03-07T09:33:07;4.27;;;3.90;;
3095;SDS011;1558;42.700;23.360;2024-03-07T09:35:39;4.60;;;4.20;;
3095;SDS011;1558;42.700;23.360;2024-03-07T09:38:07;4.13;;;3.73;;
3095;SDS011;1558;42.700;23.360;2024-03-07T09:40:36;3.87;;;3.57;;
3095;SDS011;1558;42.700;23.360;2024-03-07T09:43:05;4.10;;;3.70;;
3095;SDS011;1558;42.700;23.360;2024-03-07T09:45:36;5.60;;;3.70;;
3095;SDS011;1558;42.700;23.360;2024-03-07T09:48:07;3.63;;;3.30;;
3095;SDS011;1558;42.700;23.360;2024-03-07T09:50:36;3.60;;;3.30;;
3095;SDS011;1558;42.700;23.360;2024-03-07T09:53:06;5.90;;;4.13;;
3095;SDS011;1558;42.700;23.360;2024-03-07T09:55:35;4.40;;;4.00;;
3095;SDS011;1558;42.700;23.360;2024-03-07T09:58:04;4.20;;;3.90;;
3095;SDS011;1558;42.700;23.360;2024-03-07T10:00:34;6.57;;;4.07;;
3095;SDS011;1558;42.700;23.360;2024-03-07T10:03:08;5.23;;;4.10;;
3095;SDS011;1558;42.700;23.360;2024-03-07T10:05:40;5.90;;;5.30;;
3095;SDS011;1558;42.700;23.360;2024-03-07T10:08:09;5.43;;;4.43;;
3095;SDS011;1558;42.700;23.360;2024-03-07T10:10:39;4.57;;;4.17;;
3095;SDS011;1558;42.700;23.360;2024-03-07T10:13:07;4.63;;;3.90;;
3095;SDS011;1558;42.700;23.360;2024-03-07T10:15:36;4.47;;;4.07;;
3095;SDS011;1558;42.700;23.360;2024-03-07T10:18:07;5.13;;;4.70;;
3095;SDS011;1558;42.700;23.360;2024-03-07T10:20:37;4.57;;;4.17;;
3095;SDS011;1558;42.700;23.360;2024-03-07T10:23:09;4.73;;;4.30;;
3095;SDS011;1558;42.700;23.360;2024-03-07T10:25:40;5.03;;;4.53;;
3095;SDS011;1558;42.700;23.360;2024-03-07T10:28:08;4.37;;;3.97;;
3095;SDS011;1558;42.700;23.360;2024-03-07T10:30:40;3.80;;;3.50;;
3095;SDS011;1558;42.700;23.360;2024-03-07T10:33:12;4.47;;;4.07;;
3095;SDS011;1558;42.700;23.360;2024-03-07T10:35:42;4.10;;;3.80;;
3095;SDS011;1558;42.700;23.360;2024-03-07T10:38:21;4.37;;;3.77;;
3095;SDS011;1558;42.700;23.360;2024-03-07T10:40:55;4.27;;;3.60;;
3095;SDS011;1558;42.700;23.360;2024-03-07T10:43:25;8.50;;;3.90;;
3095;SDS011;1558;42.700;23.360;2024-03-07T10:45:57;4.10;;;3.70;;
3095;SDS011;1558;42.700;23.360;2024-03-07T10:48:35;8.20;;;4.63;;
3095;SDS011;1558;42.700;23.360;2024-03-07T10:51:10;4.60;;;4.10;;
3095;SDS011;1558;42.700;23.360;2024-03-07T10:53:57;4.40;;;4.00;;
3095;SDS011;1558;42.700;23.360;2024-03-07T10:56:41;4.27;;;3.80;;
3095;SDS011;1558;42.700;23.360;2024-03-07T10:59:21;4.87;;;4.10;;
3095;SDS011;1558;42.700;23.360;2024-03-07T11:01:55;4.43;;;4.03;;
3095;SDS011;1558;42.700;23.360;2024-03-07T11:04:28;5.87;;;5.27;;
3095;SDS011;1558;42.700;23.360;2024-03-07T11:06:57;7.87;;;4.90;;
3095;SDS011;1558;42.700;23.360;2024-03-07T11:09:27;5.70;;;5.17;;
3095;SDS011;1558;42.700;23.360;2024-03-07T11:12:00;6.60;;;6.00;;
3095;SDS011;1558;42.700;23.360;2024-03-07T11:14:30;5.53;;;5.03;;
3095;SDS011;1558;42.700;23.360;2024-03-07T11:17:00;5.73;;;5.10;;
3095;SDS011;1558;42.700;23.360;2024-03-07T11:19:32;5.70;;;4.63;;
3095;SDS011;1558;42.700;23.360;2024-03-07T11:22:03;5.30;;;4.80;;
3095;SDS011;1558;42.700;23.360;2024-03-07T11:24:42;6.00;;;5.50;;
3095;SDS011;1558;42.700;23.360;2024-03-07T11:27:12;5.87;;;5.23;;
3095;SDS011;1558;42.700;23.360;2024-03-07T11:29:42;5.80;;;5.30;;
3095;SDS011;1558;42.700;23.360;2024-03-07T11:32:11;7.90;;;5.97;;
3095;SDS011;1558;42.700;23.360;2024-03-07T11:34:43;6.60;;;4.60;;
3095;SDS011;1558;42.700;23.360;2024-03-07T11:37:18;6.90;;;5.17;;
3095;SDS011;1558;42.700;23.360;2024-03-07T11:39:49;7.40;;;6.13;;
3095;SDS011;1558;42.700;23.360;2024-03-07T11:42:23;5.60;;;5.00;;
3095;SDS011;1558;42.700;23.360;2024-03-07T11:44:58;6.17;;;5.53;;
3095;SDS011;1558;42.700;23.360;2024-03-07T11:47:34;5.27;;;4.80;;
3095;SDS011;1558;42.700;23.360;2024-03-07T11:50:07;5.70;;;5.20;;
3095;SDS011;1558;42.700;23.360;2024-03-07T11:52:38;5.90;;;5.33;;
3095;SDS011;1558;42.700;23.360;2024-03-07T11:55:11;6.17;;;5.63;;
3095;SDS011;1558;42.700;23.360;2024-03-07T11:57:39;6.13;;;5.60;;
3095;SDS011;1558;42.700;23.360;2024-03-07T12:00:11;6.63;;;5.97;;
3095;SDS011;1558;42.700;23.360;2024-03-07T12:02:41;5.83;;;5.27;;
3095;SDS011;1558;42.700;23.360;2024-03-07T12:05:12;6.87;;;6.17;;
3095;SDS011;1558;42.700;23.360;2024-03-07T12:07:43;6.70;;;6.10;;
3095;SDS011;1558;42.700;23.360;2024-03-07T12:10:13;10.07;;;6.07;;
3095;SDS011;1558;42.700;23.360;2024-03-07T12:12:42;7.90;;;6.90;;
3095;SDS011;1558;42.700;23.360;2024-03-07T12:15:12;7.73;;;7.03;;
3095;SDS011;1558;42.700;23.360;2024-03-07T12:17:46;5.97;;;5.37;;
3095;SDS011;1558;42.700;23.360;2024-03-07T12:20:18;5.93;;;5.43;;
3095;SDS011;1558;42.700;23.360;2024-03-07T12:22:58;6.27;;;5.67;;
3095;SDS011;1558;42.700;23.360;2024-03-07T12:25:29;6.00;;;5.47;;
3095;SDS011;1558;42.700;23.360;2024-03-07T12:28:01;7.73;;;6.20;;
3095;SDS011;1558;42.700;23.360;2024-03-07T12:30:32;8.93;;;6.33;;
3095;SDS011;1558;42.700;23.360;2024-03-07T12:33:02;7.60;;;6.80;;
3095;SDS011;1558;42.700;23.360;2024-03-07T12:35:35;7.07;;;6.37;;
3095;SDS011;1558;42.700;23.360;2024-03-07T12:38:04;8.13;;;7.33;;
3095;SDS011;1558;42.700;23.360;2024-03-07T12:40:32;10.23;;;9.17;;
3095;SDS011;1558;42.700;23.360;2024-03-07T12:43:12;10.80;;;8.77;;
3095;SDS011;1558;42.700;23.360;2024-03-07T12:45:44;9.37;;;8.23;;
3095;SDS011;1558;42.700;23.360;2024-03-07T12:48:13;11.33;;;9.80;;
3095;SDS011;1558;42.700;23.360;2024-03-07T12:50:46;8.93;;;8.00;;
3095;SDS011;1558;42.700;23.360;2024-03-07T12:53:20;8.97;;;8.07;;
3095;SDS011;1558;42.700;23.360;2024-03-07T12:55:48;9.37;;;8.37;;
3095;SDS011;1558;42.700;23.360;2024-03-07T12:58:18;9.00;;;8.10;;
3095;SDS011;1558;42.700;23.360;2024-03-07T13:00:49;7.77;;;7.07;;
3095;SDS011;1558;42.700;23.360;2024-03-07T13:03:17;8.97;;;8.07;;
3095;SDS011;1558;42.700;23.360;2024-03-07T13:05:47;9.93;;;7.70;;
3095;SDS011;1558;42.700;23.360;2024-03-07T13:08:15;7.63;;;6.70;;
3095;SDS011;1558;42.700;23.360;2024-03-07T13:10:43;7.60;;;6.90;;
3095;SDS011;1558;42.700;23.360;2024-03-07T13:13:16;11.27;;;8.10;;
3095;SDS011;1558;42.700;23.360;2024-03-07T13:15:46;10.03;;;7.73;;
3095;SDS011;1558;42.700;23.360;2024-03-07T13:18:14;8.13;;;6.83;;
3095;SDS011;1558;42.700;23.360;2024-03-07T13:20:43;7.43;;;6.63;;
3095;SDS011;1558;42.700;23.360;2024-03-07T13:23:14;6.50;;;5.63;;
3095;SDS011;1558;42.700;23.360;2024-03-07T13:25:42;7.53;;;6.87;;
3095;SDS011;1558;42.700;23.360;2024-03-07T13:28:11;7.43;;;6.73;;
3095;SDS011;1558;42.700;23.360;2024-03-07T13:30:43;7.07;;;6.37;;
3095;SDS011;1558;42.700;23.360;2024-03-07T13:33:16;6.87;;;6.27;;
3095;SDS011;1558;42.700;23.360;2024-03-07T13:35:45;6.60;;;5.93;;
3095;SDS011;1558;42.700;23.360;2024-03-07T13:38:14;8.37;;;6.97;;
3095;SDS011;1558;42.700;23.360;2024-03-07T13:40:43;9.93;;;6.00;;
3095;SDS011;1558;42.700;23.360;2024-03-07T13:43:11;6.07;;;5.50;;
3095;SDS011;1558;42.700;23.360;2024-03-07T13:45:41;7.40;;;6.17;;
3095;SDS011;1558;42.700;23.360;2024-03-07T13:48:10;7.23;;;6.07;;
3095;SDS011;1558;42.700;23.360;2024-03-07T13:50:40;6.00;;;5.40;;
3095;SDS011;1558;42.700;23.360;2024-03-07T13:53:26;9.47;;;5.60;;
3095;SDS011;1558;42.700;23.360;2024-03-07T13:56:12;6.80;;;6.10;;
3095;SDS011;1558;42.700;23.360;2024-03-07T13:59:14;6.40;;;5.80;;
3095;SDS011;1558;42.700;23.360;2024-03-07T14:02:08;6.73;;;6.00;;
3095;SDS011;1558;42.700;23.360;2024-03-07T14:05:07;7.30;;;6.30;;
3095;SDS011;1558;42.700;23.360;2024-03-07T14:08:00;6.97;;;6.37;;
3095;SDS011;1558;42.700;23.360;2024-03-07T14:20:42;7.53;;;6.83;;
3095;SDS011;1558;42.700;23.360;2024-03-07T14:23:30;6.70;;;6.10;;
3095;SDS011;1558;42.700;23.360;2024-03-07T14:29:12;8.07;;;7.27;;
3095;SDS011;1558;42.700;23.360;2024-03-07T14:31:49;9.40;;;7.30;;
3095;SDS011;1558;42.700;23.360;2024-03-07T14:34:19;8.17;;;7.37;;
3095;SDS011;1558;42.700;23.360;2024-03-07T14:37:04;10.43;;;8.30;;
3095;SDS011;1558;42.700;23.360;2024-03-07T14:39:40;14.57;;;10.27;;
3095;SDS011;1558;42.700;23.360;2024-03-07T14:42:09;11.00;;;9.00;;
3095;SDS011;1558;42.700;23.360;2024-03-07T14:47:36;10.73;;;9.27;;
3095;SDS011;1558;42.700;23.360;2024-03-07T14:50:22;11.73;;;10.50;;
3095;SDS011;1558;42.700;23.360;2024-03-07T14:52:56;12.93;;;10.60;;
3095;SDS011;1558;42.700;23.360;2024-03-07T14:55:39;2.37;;;2.27;;
3095;SDS011;1558;42.700;23.360;2024-03-07T14:58:18;2.50;;;2.03;;
3095;SDS011;1558;42.700;23.360;2024-03-07T15:00:55;2.20;;;1.57;;
3095;SDS011;1558;42.700;23.360;2024-03-07T15:03:33;1.50;;;1.40;;
3095;SDS011;1558;42.700;23.360;2024-03-07T15:06:08;2.40;;;2.20;;
3095;SDS011;1558;42.700;23.360;2024-03-07T15:08:44;1.77;;;1.67;;
3095;SDS011;1558;42.700;23.360;2024-03-07T15:11:18;2.30;;;2.10;;
3095;SDS011;1558;42.700;23.360;2024-03-07T15:13:54;2.20;;;2.00;;
3095;SDS011;1558;42.700;23.360;2024-03-07T15:16:26;2.13;;;1.93;;
3095;SDS011;1558;42.700;23.360;2024-03-07T15:19:02;1.87;;;1.77;;
3095;SDS011;1558;42.700;23.360;2024-03-07T15:21:46;2.23;;;2.10;;
3095;SDS011;1558;42.700;23.360;2024-03-07T15:24:24;2.37;;;2.23;;
3095;SDS011;1558;42.700;23.360;2024-03-07T15:26:52;2.80;;;2.07;;
3095;SDS011;1558;42.700;23.360;2024-03-07T15:29:28;2.40;;;2.20;;
3095;SDS011;1558;42.700;23.360;2024-03-07T15:31:59;2.00;;;1.90;;
3095;SDS011;1558;42.700;23.360;2024-03-07T15:34:33;1.77;;;1.67;;
3095;SDS011;1558;42.700;23.360;2024-03-07T15:37:04;2.47;;;2.27;;
3095;SDS011;1558;42.700;23.360;2024-03-07T15:39:34;3.80;;;1.90;;
3095;SDS011;1558;42.700;23.360;2024-03-07T15:42:05;2.80;;;2.60;;
3095;SDS011;1558;42.700;23.360;2024-03-07T15:44:38;2.20;;;2.00;;
3095;SDS011;1558;42.700;23.360;2024-03-07T15:47:10;2.53;;;2.33;;
3095;SDS011;1558;42.700;23.360;2024-03-07T15:49:38;2.10;;;2.00;;